sensor_id;sensor_type;location;lat;lon;timestamp;P1;durP1;ratioP1;P2;durP2;ratioP2
77984;SDS011;67177;47.240;-1.546;2023-11-19T00:01:31;8.33;;;1.53;;
77984;SDS011;67177;47.240;-1.546;2023-11-19T00:03:57;10.60;;;1.95;;
77984;SDS011;67177;47.240;-1.546;2023-11-19T00:06:23;8.18;;;1.73;;
77984;SDS011;67177;47.240;-1.546;2023-11-19T00:08:50;6.70;;;1.52;;
77984;SDS011;67177;47.240;-1.546;2023-11-19T00:11:16;6.20;;;1.40;;
77984;SDS011;67177;47.240;-1.546;2023-11-19T00:13:42;5.53;;;1.57;;
77984;SDS011;67177;47.240;-1.546;2023-11-19T00:16:08;5.60;;;1.58;;
77984;SDS011;67177;47.240;-1.546;2023-11-19T00:18:34;7.87;;;1.73;;
77984;SDS011;67177;47.240;-1.546;2023-11-19T00:21:01;8.27;;;1.52;;
77984;SDS011;67177;47.240;-1.546;2023-11-19T00:23:27;7.75;;;1.60;;
77984;SDS011;67177;47.240;-1.546;2023-11-19T00:25:53;6.70;;;1.52;;
77984;SDS011;67177;47.240;-1.546;2023-11-19T00:28:19;6.43;;;1.80;;
77984;SDS011;67177;47.240;-1.546;2023-11-19T00:30:44;6.32;;;1.55;;
77984;SDS011;67177;47.240;-1.546;2023-11-19T00:33:10;8.27;;;1.60;;
77984;SDS011;67177;47.240;-1.546;2023-11-19T00:35:36;7.67;;;1.70;;
77984;SDS011;67177;47.240;-1.546;2023-11-19T00:38:02;7.13;;;1.80;;
77984;SDS011;67177;47.240;-1.546;2023-11-19T00:40:29;5.13;;;1.35;;
77984;SDS011;67177;47.240;-1.546;2023-11-19T00:42:54;9.25;;;1.80;;
77984;SDS011;67177;47.240;-1.546;2023-11-19T00:45:20;7.13;;;1.63;;
77984;SDS011;67177;47.240;-1.546;2023-11-19T00:47:46;7.23;;;1.43;;
77984;SDS011;67177;47.240;-1.546;2023-11-19T00:50:12;7.07;;;1.58;;
77984;SDS011;67177;47.240;-1.546;2023-11-19T00:52:38;7.63;;;1.58;;
77984;SDS011;67177;47.240;-1.546;2023-11-19T00:55:04;5.32;;;1.50;;
77984;SDS011;67177;47.240;-1.546;2023-11-19T00:57:30;8.07;;;1.50;;
77984;SDS011;67177;47.240;-1.546;2023-11-19T00:59:57;7.20;;;1.42;;
77984;SDS011;67177;47.240;-1.546;2023-11-19T01:02:23;5.28;;;1.30;;
77984;SDS011;67177;47.240;-1.546;2023-11-19T01:04:49;7.13;;;1.27;;
77984;SDS011;67177;47.240;-1.546;2023-11-19T01:07:15;6.30;;;1.40;;
77984;SDS011;67177;47.240;-1.546;2023-11-19T01:09:41;6.70;;;1.13;;
77984;SDS011;67177;47.240;-1.546;2023-11-19T01:12:07;5.25;;;1.10;;
77984;SDS011;67177;47.240;-1.546;2023-11-19T01:14:35;4.80;;;1.20;;
77984;SDS011;67177;47.240;-1.546;2023-11-19T01:17:01;6.07;;;1.38;;
77984;SDS011;67177;47.240;-1.546;2023-11-19T01:19:26;6.25;;;1.20;;
77984;SDS011;67177;47.240;-1.546;2023-11-19T01:21:53;6.77;;;1.40;;
77984;SDS011;67177;47.240;-1.546;2023-11-19T01:24:19;6.75;;;1.40;;
77984;SDS011;67177;47.240;-1.546;2023-11-19T01:26:45;5.97;;;1.30;;
77984;SDS011;67177;47.240;-1.546;2023-11-19T01:29:12;5.75;;;1.40;;
77984;SDS011;67177;47.240;-1.546;2023-11-19T01:31:41;6.47;;;1.20;;
77984;SDS011;67177;47.240;-1.546;2023-11-19T01:34:07;7.00;;;1.55;;
77984;SDS011;67177;47.240;-1.546;2023-11-19T01:36:34;5.90;;;1.20;;
77984;SDS011;67177;47.240;-1.546;2023-11-19T01:38:59;5.43;;;1.15;;
77984;SDS011;67177;47.240;-1.546;2023-11-19T01:41:25;6.87;;;1.30;;
77984;SDS011;67177;47.240;-1.546;2023-11-19T01:43:51;7.03;;;1.10;;
77984;SDS011;67177;47.240;-1.546;2023-11-19T01:46:17;5.93;;;0.82;;
77984;SDS011;67177;47.240;-1.546;2023-11-19T01:48:44;5.72;;;1.10;;
77984;SDS011;67177;47.240;-1.546;2023-11-19T01:51:11;4.53;;;1.10;;
77984;SDS011;67177;47.240;-1.546;2023-11-19T01:53:41;5.40;;;1.20;;
77984;SDS011;67177;47.240;-1.546;2023-11-19T01:56:08;7.57;;;1.40;;
77984;SDS011;67177;47.240;-1.546;2023-11-19T01:58:36;5.75;;;1.33;;
77984;SDS011;67177;47.240;-1.546;2023-11-19T02:01:04;5.78;;;1.30;;
77984;SDS011;67177;47.240;-1.546;2023-11-19T02:03:32;6.13;;;1.20;;
77984;SDS011;67177;47.240;-1.546;2023-11-19T02:06:02;6.33;;;1.37;;
77984;SDS011;67177;47.240;-1.546;2023-11-19T02:08:28;4.97;;;1.02;;
77984;SDS011;67177;47.240;-1.546;2023-11-19T02:10:54;4.70;;;1.00;;
77984;SDS011;67177;47.240;-1.546;2023-11-19T02:13:26;6.15;;;1.10;;
77984;SDS011;67177;47.240;-1.546;2023-11-19T02:15:52;8.48;;;1.30;;
77984;SDS011;67177;47.240;-1.546;2023-11-19T02:18:21;6.63;;;1.03;;
77984;SDS011;67177;47.240;-1.546;2023-11-19T02:20:49;7.00;;;1.60;;
77984;SDS011;67177;47.240;-1.546;2023-11-19T02:23:15;12.00;;;1.80;;
77984;SDS011;67177;47.240;-1.546;2023-11-19T02:25:42;6.80;;;1.60;;
77984;SDS011;67177;47.240;-1.546;2023-11-19T02:28:12;7.38;;;2.05;;
77984;SDS011;67177;47.240;-1.546;2023-11-19T02:30:38;7.80;;;1.60;;
77984;SDS011;67177;47.240;-1.546;2023-11-19T02:33:04;9.07;;;1.60;;
77984;SDS011;67177;47.240;-1.546;2023-11-19T02:35:33;8.57;;;1.58;;
77984;SDS011;67177;47.240;-1.546;2023-11-19T02:37:59;10.45;;;1.90;;
77984;SDS011;67177;47.240;-1.546;2023-11-19T02:40:31;10.70;;;1.67;;
77984;SDS011;67177;47.240;-1.546;2023-11-19T02:42:57;5.53;;;1.48;;
77984;SDS011;67177;47.240;-1.546;2023-11-19T02:45:23;7.23;;;1.47;;
77984;SDS011;67177;47.240;-1.546;2023-11-19T02:47:50;8.57;;;1.65;;
77984;SDS011;67177;47.240;-1.546;2023-11-19T02:50:17;7.00;;;1.27;;
77984;SDS011;67177;47.240;-1.546;2023-11-19T02:52:49;5.55;;;1.23;;
77984;SDS011;67177;47.240;-1.546;2023-11-19T02:55:16;5.20;;;1.30;;
77984;SDS011;67177;47.240;-1.546;2023-11-19T02:57:43;9.85;;;1.77;;
77984;SDS011;67177;47.240;-1.546;2023-11-19T03:00:14;7.80;;;1.40;;
77984;SDS011;67177;47.240;-1.546;2023-11-19T03:02:56;8.27;;;1.40;;
77984;SDS011;67177;47.240;-1.546;2023-11-19T03:05:30;8.77;;;1.50;;
77984;SDS011;67177;47.240;-1.546;2023-11-19T03:07:56;8.43;;;1.53;;
77984;SDS011;67177;47.240;-1.546;2023-11-19T03:10:22;5.40;;;1.20;;
77984;SDS011;67177;47.240;-1.546;2023-11-19T03:12:48;4.80;;;1.30;;
77984;SDS011;67177;47.240;-1.546;2023-11-19T03:15:14;6.33;;;1.40;;
77984;SDS011;67177;47.240;-1.546;2023-11-19T03:17:41;4.57;;;1.00;;
77984;SDS011;67177;47.240;-1.546;2023-11-19T03:20:08;4.35;;;1.00;;
77984;SDS011;67177;47.240;-1.546;2023-11-19T03:22:39;5.22;;;0.82;;
77984;SDS011;67177;47.240;-1.546;2023-11-19T03:25:06;7.10;;;1.38;;
77984;SDS011;67177;47.240;-1.546;2023-11-19T03:27:33;5.40;;;1.23;;
77984;SDS011;67177;47.240;-1.546;2023-11-19T03:30:01;6.05;;;1.10;;
77984;SDS011;67177;47.240;-1.546;2023-11-19T03:32:29;5.47;;;1.40;;
77984;SDS011;67177;47.240;-1.546;2023-11-19T03:34:56;5.93;;;1.20;;
77984;SDS011;67177;47.240;-1.546;2023-11-19T03:37:21;4.97;;;0.90;;
77984;SDS011;67177;47.240;-1.546;2023-11-19T03:39:47;4.88;;;0.90;;
77984;SDS011;67177;47.240;-1.546;2023-11-19T03:42:12;5.13;;;1.30;;
77984;SDS011;67177;47.240;-1.546;2023-11-19T03:44:38;6.70;;;1.33;;
77984;SDS011;67177;47.240;-1.546;2023-11-19T03:47:04;4.97;;;0.90;;
77984;SDS011;67177;47.240;-1.546;2023-11-19T03:49:30;5.35;;;1.10;;
77984;SDS011;67177;47.240;-1.546;2023-11-19T03:51:55;5.47;;;0.90;;
77984;SDS011;67177;47.240;-1.546;2023-11-19T03:54:21;7.03;;;1.27;;
77984;SDS011;67177;47.240;-1.546;2023-11-19T03:56:48;7.05;;;1.30;;
77984;SDS011;67177;47.240;-1.546;2023-11-19T03:59:14;8.05;;;1.50;;
77984;SDS011;67177;47.240;-1.546;2023-11-19T04:01:40;7.73;;;1.30;;
77984;SDS011;67177;47.240;-1.546;2023-11-19T04:04:06;4.85;;;0.98;;
77984;SDS011;67177;47.240;-1.546;2023-11-19T04:06:32;6.93;;;1.20;;
77984;SDS011;67177;47.240;-1.546;2023-11-19T04:08:57;8.77;;;1.30;;
77984;SDS011;67177;47.240;-1.546;2023-11-19T04:11:23;5.22;;;1.15;;
77984;SDS011;67177;47.240;-1.546;2023-11-19T04:13:48;4.93;;;1.13;;
77984;SDS011;67177;47.240;-1.546;2023-11-19T04:16:14;6.83;;;1.00;;
77984;SDS011;67177;47.240;-1.546;2023-11-19T04:18:40;5.18;;;1.15;;
77984;SDS011;67177;47.240;-1.546;2023-11-19T04:21:06;6.97;;;1.30;;
77984;SDS011;67177;47.240;-1.546;2023-11-19T04:23:33;8.33;;;1.30;;
77984;SDS011;67177;47.240;-1.546;2023-11-19T04:26:01;5.28;;;1.20;;
77984;SDS011;67177;47.240;-1.546;2023-11-19T04:28:28;10.30;;;1.50;;
77984;SDS011;67177;47.240;-1.546;2023-11-19T04:30:55;8.13;;;1.35;;
77984;SDS011;67177;47.240;-1.546;2023-11-19T04:33:20;7.10;;;1.53;;
77984;SDS011;67177;47.240;-1.546;2023-11-19T04:35:46;7.43;;;1.50;;
77984;SDS011;67177;47.240;-1.546;2023-11-19T04:38:11;9.63;;;1.65;;
77984;SDS011;67177;47.240;-1.546;2023-11-19T04:40:37;11.10;;;1.95;;
77984;SDS011;67177;47.240;-1.546;2023-11-19T04:43:02;6.40;;;1.60;;
77984;SDS011;67177;47.240;-1.546;2023-11-19T04:45:28;9.15;;;1.50;;
77984;SDS011;67177;47.240;-1.546;2023-11-19T04:47:54;10.68;;;1.77;;
77984;SDS011;67177;47.240;-1.546;2023-11-19T04:50:19;9.27;;;1.90;;
77984;SDS011;67177;47.240;-1.546;2023-11-19T04:52:45;7.15;;;1.60;;
77984;SDS011;67177;47.240;-1.546;2023-11-19T04:55:12;9.67;;;1.60;;
77984;SDS011;67177;47.240;-1.546;2023-11-19T04:57:39;5.90;;;1.20;;
77984;SDS011;67177;47.240;-1.546;2023-11-19T05:00:05;8.60;;;1.70;;
77984;SDS011;67177;47.240;-1.546;2023-11-19T05:02:32;9.60;;;1.63;;
77984;SDS011;67177;47.240;-1.546;2023-11-19T05:04:59;7.65;;;1.63;;
77984;SDS011;67177;47.240;-1.546;2023-11-19T05:07:25;7.95;;;1.50;;
77984;SDS011;67177;47.240;-1.546;2023-11-19T05:09:51;9.45;;;1.50;;
77984;SDS011;67177;47.240;-1.546;2023-11-19T05:12:17;6.90;;;1.67;;
77984;SDS011;67177;47.240;-1.546;2023-11-19T05:14:42;5.83;;;1.50;;
77984;SDS011;67177;47.240;-1.546;2023-11-19T05:17:14;7.13;;;1.15;;
77984;SDS011;67177;47.240;-1.546;2023-11-19T05:19:40;6.35;;;1.25;;
77984;SDS011;67177;47.240;-1.546;2023-11-19T05:22:05;9.43;;;1.43;;
77984;SDS011;67177;47.240;-1.546;2023-11-19T05:24:31;7.38;;;1.52;;
77984;SDS011;67177;47.240;-1.546;2023-11-19T05:26:57;5.27;;;1.10;;
77984;SDS011;67177;47.240;-1.546;2023-11-19T05:29:23;4.72;;;1.00;;
77984;SDS011;67177;47.240;-1.546;2023-11-19T05:31:49;6.65;;;1.50;;
77984;SDS011;67177;47.240;-1.546;2023-11-19T05:34:15;7.10;;;1.30;;
77984;SDS011;67177;47.240;-1.546;2023-11-19T05:36:40;8.70;;;1.43;;
77984;SDS011;67177;47.240;-1.546;2023-11-19T05:39:06;7.87;;;1.20;;
77984;SDS011;67177;47.240;-1.546;2023-11-19T05:41:31;6.85;;;0.98;;
77984;SDS011;67177;47.240;-1.546;2023-11-19T05:43:57;9.60;;;1.73;;
77984;SDS011;67177;47.240;-1.546;2023-11-19T05:46:23;6.70;;;1.30;;
77984;SDS011;67177;47.240;-1.546;2023-11-19T05:48:50;9.87;;;1.30;;
77984;SDS011;67177;47.240;-1.546;2023-11-19T05:51:16;6.47;;;1.30;;
77984;SDS011;67177;47.240;-1.546;2023-11-19T05:53:42;6.03;;;1.23;;
77984;SDS011;67177;47.240;-1.546;2023-11-19T05:56:08;9.02;;;1.33;;
77984;SDS011;67177;47.240;-1.546;2023-11-19T05:58:34;5.45;;;1.27;;
77984;SDS011;67177;47.240;-1.546;2023-11-19T06:01:01;6.10;;;1.20;;
77984;SDS011;67177;47.240;-1.546;2023-11-19T06:03:28;8.25;;;1.52;;
77984;SDS011;67177;47.240;-1.546;2023-11-19T06:05:53;6.60;;;1.20;;
77984;SDS011;67177;47.240;-1.546;2023-11-19T06:08:21;6.37;;;1.07;;
77984;SDS011;67177;47.240;-1.546;2023-11-19T06:10:47;5.30;;;1.10;;
77984;SDS011;67177;47.240;-1.546;2023-11-19T06:13:15;6.43;;;0.90;;
77984;SDS011;67177;47.240;-1.546;2023-11-19T06:15:44;5.93;;;1.23;;
77984;SDS011;67177;47.240;-1.546;2023-11-19T06:18:10;5.88;;;1.38;;
77984;SDS011;67177;47.240;-1.546;2023-11-19T06:20:37;4.10;;;0.80;;
77984;SDS011;67177;47.240;-1.546;2023-11-19T06:23:03;5.17;;;1.30;;
77984;SDS011;67177;47.240;-1.546;2023-11-19T06:25:29;6.03;;;0.90;;
77984;SDS011;67177;47.240;-1.546;2023-11-19T06:27:54;4.00;;;0.90;;
77984;SDS011;67177;47.240;-1.546;2023-11-19T06:30:20;5.07;;;1.20;;
77984;SDS011;67177;47.240;-1.546;2023-11-19T06:32:46;4.57;;;0.83;;
77984;SDS011;67177;47.240;-1.546;2023-11-19T06:35:12;3.42;;;0.70;;
77984;SDS011;67177;47.240;-1.546;2023-11-19T06:37:41;5.30;;;0.98;;
77984;SDS011;67177;47.240;-1.546;2023-11-19T06:40:07;7.20;;;1.20;;
77984;SDS011;67177;47.240;-1.546;2023-11-19T06:42:34;6.40;;;1.20;;
77984;SDS011;67177;47.240;-1.546;2023-11-19T06:45:00;7.70;;;1.27;;
77984;SDS011;67177;47.240;-1.546;2023-11-19T06:47:26;8.18;;;1.23;;
77984;SDS011;67177;47.240;-1.546;2023-11-19T06:49:53;7.35;;;1.30;;
77984;SDS011;67177;47.240;-1.546;2023-11-19T06:52:18;6.30;;;1.20;;
77984;SDS011;67177;47.240;-1.546;2023-11-19T06:54:44;5.32;;;1.02;;
77984;SDS011;67177;47.240;-1.546;2023-11-19T06:57:13;6.03;;;1.25;;
77984;SDS011;67177;47.240;-1.546;2023-11-19T06:59:39;6.10;;;0.90;;
77984;SDS011;67177;47.240;-1.546;2023-11-19T07:02:05;5.43;;;1.20;;
77984;SDS011;67177;47.240;-1.546;2023-11-19T07:04:31;7.65;;;1.27;;
77984;SDS011;67177;47.240;-1.546;2023-11-19T07:06:58;7.30;;;1.25;;
77984;SDS011;67177;47.240;-1.546;2023-11-19T07:09:24;9.27;;;1.43;;
77984;SDS011;67177;47.240;-1.546;2023-11-19T07:11:50;5.45;;;1.30;;
77984;SDS011;67177;47.240;-1.546;2023-11-19T07:14:17;4.57;;;1.10;;
77984;SDS011;67177;47.240;-1.546;2023-11-19T07:16:43;5.03;;;1.00;;
77984;SDS011;67177;47.240;-1.546;2023-11-19T07:19:09;5.38;;;1.30;;
77984;SDS011;67177;47.240;-1.546;2023-11-19T07:21:35;6.30;;;0.93;;
77984;SDS011;67177;47.240;-1.546;2023-11-19T07:24:04;4.63;;;0.98;;
77984;SDS011;67177;47.240;-1.546;2023-11-19T07:26:30;6.95;;;1.35;;
77984;SDS011;67177;47.240;-1.546;2023-11-19T07:28:56;7.30;;;1.10;;
77984;SDS011;67177;47.240;-1.546;2023-11-19T07:31:23;4.85;;;1.10;;
77984;SDS011;67177;47.240;-1.546;2023-11-19T07:33:49;5.25;;;1.10;;
77984;SDS011;67177;47.240;-1.546;2023-11-19T07:36:14;5.93;;;1.00;;
77984;SDS011;67177;47.240;-1.546;2023-11-19T07:38:41;6.05;;;1.35;;
77984;SDS011;67177;47.240;-1.546;2023-11-19T07:41:07;5.07;;;1.00;;
77984;SDS011;67177;47.240;-1.546;2023-11-19T07:43:39;5.72;;;1.10;;
77984;SDS011;67177;47.240;-1.546;2023-11-19T07:46:10;5.88;;;0.93;;
77984;SDS011;67177;47.240;-1.546;2023-11-19T07:48:37;5.00;;;1.10;;
77984;SDS011;67177;47.240;-1.546;2023-11-19T07:51:03;4.15;;;0.90;;
77984;SDS011;67177;47.240;-1.546;2023-11-19T07:53:29;4.55;;;1.05;;
77984;SDS011;67177;47.240;-1.546;2023-11-19T07:55:55;5.80;;;1.20;;
77984;SDS011;67177;47.240;-1.546;2023-11-19T07:58:20;4.75;;;1.00;;
77984;SDS011;67177;47.240;-1.546;2023-11-19T08:00:46;4.53;;;1.00;;
77984;SDS011;67177;47.240;-1.546;2023-11-19T08:03:12;7.73;;;1.33;;
77984;SDS011;67177;47.240;-1.546;2023-11-19T08:05:37;5.70;;;0.80;;
77984;SDS011;67177;47.240;-1.546;2023-11-19T08:08:03;4.97;;;1.20;;
77984;SDS011;67177;47.240;-1.546;2023-11-19T08:10:29;9.70;;;1.55;;
77984;SDS011;67177;47.240;-1.546;2023-11-19T08:12:54;6.13;;;1.10;;
77984;SDS011;67177;47.240;-1.546;2023-11-19T08:15:20;7.20;;;1.20;;
77984;SDS011;67177;47.240;-1.546;2023-11-19T08:17:45;4.45;;;0.95;;
77984;SDS011;67177;47.240;-1.546;2023-11-19T08:20:12;5.17;;;1.00;;
77984;SDS011;67177;47.240;-1.546;2023-11-19T08:22:38;7.00;;;1.02;;
77984;SDS011;67177;47.240;-1.546;2023-11-19T08:25:04;8.38;;;1.20;;
77984;SDS011;67177;47.240;-1.546;2023-11-19T08:27:30;5.55;;;1.05;;
77984;SDS011;67177;47.240;-1.546;2023-11-19T08:29:56;7.43;;;1.20;;
77984;SDS011;67177;47.240;-1.546;2023-11-19T08:32:22;5.72;;;1.02;;
77984;SDS011;67177;47.240;-1.546;2023-11-19T08:34:51;5.67;;;1.30;;
77984;SDS011;67177;47.240;-1.546;2023-11-19T08:37:18;7.00;;;1.40;;
77984;SDS011;67177;47.240;-1.546;2023-11-19T08:39:49;4.68;;;1.00;;
77984;SDS011;67177;47.240;-1.546;2023-11-19T08:42:18;5.93;;;1.25;;
77984;SDS011;67177;47.240;-1.546;2023-11-19T08:44:44;5.93;;;1.10;;
77984;SDS011;67177;47.240;-1.546;2023-11-19T08:47:15;5.55;;;1.10;;
77984;SDS011;67177;47.240;-1.546;2023-11-19T08:49:43;5.43;;;1.08;;
77984;SDS011;67177;47.240;-1.546;2023-11-19T08:52:12;7.20;;;1.23;;
77984;SDS011;67177;47.240;-1.546;2023-11-19T08:54:37;6.60;;;1.40;;
77984;SDS011;67177;47.240;-1.546;2023-11-19T08:57:07;5.50;;;1.13;;
77984;SDS011;67177;47.240;-1.546;2023-11-19T08:59:33;6.15;;;1.00;;
77984;SDS011;67177;47.240;-1.546;2023-11-19T09:01:59;5.68;;;1.30;;
77984;SDS011;67177;47.240;-1.546;2023-11-19T09:04:25;7.70;;;1.47;;
77984;SDS011;67177;47.240;-1.546;2023-11-19T09:06:50;6.97;;;1.23;;
77984;SDS011;67177;47.240;-1.546;2023-11-19T09:09:16;10.55;;;1.80;;
77984;SDS011;67177;47.240;-1.546;2023-11-19T09:11:42;6.95;;;1.55;;
77984;SDS011;67177;47.240;-1.546;2023-11-19T09:14:08;8.38;;;1.50;;
77984;SDS011;67177;47.240;-1.546;2023-11-19T09:16:33;14.10;;;2.13;;
77984;SDS011;67177;47.240;-1.546;2023-11-19T09:18:59;15.32;;;2.35;;
77984;SDS011;67177;47.240;-1.546;2023-11-19T09:21:27;10.95;;;2.10;;
77984;SDS011;67177;47.240;-1.546;2023-11-19T09:23:54;8.13;;;1.47;;
77984;SDS011;67177;47.240;-1.546;2023-11-19T09:26:20;11.93;;;1.83;;
77984;SDS011;67177;47.240;-1.546;2023-11-19T09:28:46;8.77;;;1.58;;
77984;SDS011;67177;47.240;-1.546;2023-11-19T09:31:15;7.63;;;1.50;;
77984;SDS011;67177;47.240;-1.546;2023-11-19T09:33:41;12.50;;;1.85;;
77984;SDS011;67177;47.240;-1.546;2023-11-19T09:36:07;7.75;;;1.45;;
77984;SDS011;67177;47.240;-1.546;2023-11-19T09:38:33;12.43;;;1.70;;
77984;SDS011;67177;47.240;-1.546;2023-11-19T09:41:03;8.20;;;1.88;;
77984;SDS011;67177;47.240;-1.546;2023-11-19T09:43:38;9.27;;;1.52;;
77984;SDS011;67177;47.240;-1.546;2023-11-19T09:46:11;8.77;;;1.55;;
77984;SDS011;67177;47.240;-1.546;2023-11-19T09:48:40;7.90;;;1.70;;
77984;SDS011;67177;47.240;-1.546;2023-11-19T09:51:07;9.38;;;1.73;;
77984;SDS011;67177;47.240;-1.546;2023-11-19T09:53:34;14.65;;;1.95;;
77984;SDS011;67177;47.240;-1.546;2023-11-19T09:56:01;10.43;;;1.70;;
77984;SDS011;67177;47.240;-1.546;2023-11-19T09:58:28;6.88;;;1.10;;
77984;SDS011;67177;47.240;-1.546;2023-11-19T10:00:55;10.60;;;1.70;;
77984;SDS011;67177;47.240;-1.546;2023-11-19T10:03:24;8.63;;;1.65;;
77984;SDS011;67177;47.240;-1.546;2023-11-19T10:05:52;7.57;;;1.35;;
77984;SDS011;67177;47.240;-1.546;2023-11-19T10:08:19;10.25;;;1.80;;
77984;SDS011;67177;47.240;-1.546;2023-11-19T10:10:45;10.50;;;2.00;;
77984;SDS011;67177;47.240;-1.546;2023-11-19T10:13:10;9.90;;;1.80;;
77984;SDS011;67177;47.240;-1.546;2023-11-19T10:15:37;14.07;;;1.90;;
77984;SDS011;67177;47.240;-1.546;2023-11-19T10:18:03;9.43;;;1.90;;
77984;SDS011;67177;47.240;-1.546;2023-11-19T10:20:35;10.15;;;2.00;;
77984;SDS011;67177;47.240;-1.546;2023-11-19T10:23:07;6.03;;;1.53;;
77984;SDS011;67177;47.240;-1.546;2023-11-19T10:25:33;10.00;;;1.80;;
77984;SDS011;67177;47.240;-1.546;2023-11-19T10:27:59;12.27;;;1.80;;
77984;SDS011;67177;47.240;-1.546;2023-11-19T10:30:28;10.07;;;1.52;;
77984;SDS011;67177;47.240;-1.546;2023-11-19T10:33:05;8.87;;;1.77;;
77984;SDS011;67177;47.240;-1.546;2023-11-19T10:35:34;8.05;;;1.67;;
77984;SDS011;67177;47.240;-1.546;2023-11-19T10:38:20;10.68;;;1.83;;
77984;SDS011;67177;47.240;-1.546;2023-11-19T10:40:47;15.73;;;2.47;;
77984;SDS011;67177;47.240;-1.546;2023-11-19T10:43:13;11.65;;;2.25;;
77984;SDS011;67177;47.240;-1.546;2023-11-19T10:45:39;12.30;;;2.33;;
77984;SDS011;67177;47.240;-1.546;2023-11-19T10:48:06;13.27;;;2.17;;
77984;SDS011;67177;47.240;-1.546;2023-11-19T10:50:38;8.25;;;1.63;;
77984;SDS011;67177;47.240;-1.546;2023-11-19T10:53:05;11.53;;;1.97;;
77984;SDS011;67177;47.240;-1.546;2023-11-19T10:55:34;10.52;;;2.10;;
77984;SDS011;67177;47.240;-1.546;2023-11-19T10:58:06;13.02;;;2.22;;
77984;SDS011;67177;47.240;-1.546;2023-11-19T11:03:17;12.30;;;2.05;;
77984;SDS011;67177;47.240;-1.546;2023-11-19T11:05:46;10.30;;;1.90;;
77984;SDS011;67177;47.240;-1.546;2023-11-19T11:08:13;9.30;;;2.00;;
77984;SDS011;67177;47.240;-1.546;2023-11-19T11:10:42;11.07;;;1.90;;
77984;SDS011;67177;47.240;-1.546;2023-11-19T11:13:10;10.13;;;1.70;;
77984;SDS011;67177;47.240;-1.546;2023-11-19T11:15:38;10.93;;;1.77;;
77984;SDS011;67177;47.240;-1.546;2023-11-19T11:18:07;13.07;;;2.23;;
77984;SDS011;67177;47.240;-1.546;2023-11-19T11:20:34;13.90;;;2.20;;
77984;SDS011;67177;47.240;-1.546;2023-11-19T11:36:24;11.60;;;1.92;;
77984;SDS011;67177;47.240;-1.546;2023-11-19T11:38:50;11.75;;;1.70;;
77984;SDS011;67177;47.240;-1.546;2023-11-19T11:41:21;10.88;;;1.90;;
77984;SDS011;67177;47.240;-1.546;2023-11-19T11:43:48;11.67;;;1.87;;
77984;SDS011;67177;47.240;-1.546;2023-11-19T11:49:05;10.55;;;2.13;;
77984;SDS011;67177;47.240;-1.546;2023-11-19T11:57:00;9.87;;;1.83;;
77984;SDS011;67177;47.240;-1.546;2023-11-19T11:59:31;13.13;;;2.40;;
77984;SDS011;67177;47.240;-1.546;2023-11-19T12:02:07;10.20;;;2.03;;
77984;SDS011;67177;47.240;-1.546;2023-11-19T12:04:34;11.98;;;1.98;;
77984;SDS011;67177;47.240;-1.546;2023-11-19T12:07:14;9.95;;;1.80;;
77984;SDS011;67177;47.240;-1.546;2023-11-19T12:09:42;10.60;;;2.13;;
77984;SDS011;67177;47.240;-1.546;2023-11-19T12:12:17;9.90;;;2.03;;
77984;SDS011;67177;47.240;-1.546;2023-11-19T12:19:59;9.23;;;1.75;;
77984;SDS011;67177;47.240;-1.546;2023-11-19T12:22:25;13.87;;;2.57;;
77984;SDS011;67177;47.240;-1.546;2023-11-19T12:24:51;12.43;;;2.47;;
77984;SDS011;67177;47.240;-1.546;2023-11-19T12:27:21;12.68;;;2.67;;
77984;SDS011;67177;47.240;-1.546;2023-11-19T12:29:47;11.33;;;1.97;;
77984;SDS011;67177;47.240;-1.546;2023-11-19T12:32:13;10.45;;;2.00;;
77984;SDS011;67177;47.240;-1.546;2023-11-19T12:34:39;11.88;;;3.00;;
77984;SDS011;67177;47.240;-1.546;2023-11-19T12:37:05;12.60;;;2.60;;
77984;SDS011;67177;47.240;-1.546;2023-11-19T12:39:31;12.57;;;2.40;;
77984;SDS011;67177;47.240;-1.546;2023-11-19T12:41:57;10.40;;;2.10;;
77984;SDS011;67177;47.240;-1.546;2023-11-19T12:44:27;11.43;;;2.10;;
77984;SDS011;67177;47.240;-1.546;2023-11-19T12:46:59;12.37;;;2.60;;
77984;SDS011;67177;47.240;-1.546;2023-11-19T12:49:32;12.18;;;2.42;;
77984;SDS011;67177;47.240;-1.546;2023-11-19T12:51:58;14.75;;;2.60;;
77984;SDS011;67177;47.240;-1.546;2023-11-19T12:54:58;11.07;;;2.20;;
77984;SDS011;67177;47.240;-1.546;2023-11-19T12:57:17;10.43;;;1.98;;
77984;SDS011;67177;47.240;-1.546;2023-11-19T12:59:57;8.53;;;1.70;;
77984;SDS011;67177;47.240;-1.546;2023-11-19T13:02:23;10.02;;;1.70;;
77984;SDS011;67177;47.240;-1.546;2023-11-19T13:07:49;10.93;;;2.00;;
77984;SDS011;67177;47.240;-1.546;2023-11-19T13:10:15;8.43;;;2.13;;
77984;SDS011;67177;47.240;-1.546;2023-11-19T13:12:40;12.73;;;2.40;;
77984;SDS011;67177;47.240;-1.546;2023-11-19T13:15:06;14.27;;;2.50;;
77984;SDS011;67177;47.240;-1.546;2023-11-19T13:17:47;9.70;;;2.05;;
77984;SDS011;67177;47.240;-1.546;2023-11-19T13:20:12;13.37;;;2.40;;
77984;SDS011;67177;47.240;-1.546;2023-11-19T13:22:53;10.15;;;1.60;;
77984;SDS011;67177;47.240;-1.546;2023-11-19T13:25:22;11.35;;;2.20;;
77984;SDS011;67177;47.240;-1.546;2023-11-19T13:27:48;8.20;;;1.30;;
77984;SDS011;67177;47.240;-1.546;2023-11-19T13:30:13;11.80;;;1.85;;
77984;SDS011;67177;47.240;-1.546;2023-11-19T13:32:40;9.60;;;1.50;;
77984;SDS011;67177;47.240;-1.546;2023-11-19T13:35:05;11.60;;;2.07;;
77984;SDS011;67177;47.240;-1.546;2023-11-19T13:37:33;11.18;;;1.90;;
77984;SDS011;67177;47.240;-1.546;2023-11-19T13:39:59;10.77;;;2.25;;
77984;SDS011;67177;47.240;-1.546;2023-11-19T13:42:25;13.10;;;2.10;;
77984;SDS011;67177;47.240;-1.546;2023-11-19T13:44:52;11.20;;;2.10;;
77984;SDS011;67177;47.240;-1.546;2023-11-19T13:47:17;12.57;;;2.10;;
77984;SDS011;67177;47.240;-1.546;2023-11-19T13:49:44;12.02;;;2.30;;
77984;SDS011;67177;47.240;-1.546;2023-11-19T13:52:10;12.68;;;2.00;;
77984;SDS011;67177;47.240;-1.546;2023-11-19T13:54:36;10.63;;;1.93;;
77984;SDS011;67177;47.240;-1.546;2023-11-19T13:57:02;12.68;;;2.35;;
77984;SDS011;67177;47.240;-1.546;2023-11-19T13:59:29;9.50;;;1.70;;
77984;SDS011;67177;47.240;-1.546;2023-11-19T14:01:58;10.02;;;1.83;;
77984;SDS011;67177;47.240;-1.546;2023-11-19T14:04:24;10.60;;;1.92;;
77984;SDS011;67177;47.240;-1.546;2023-11-19T14:06:50;9.03;;;1.70;;
77984;SDS011;67177;47.240;-1.546;2023-11-19T14:09:16;11.73;;;2.03;;
77984;SDS011;67177;47.240;-1.546;2023-11-19T14:11:42;12.00;;;1.70;;
77984;SDS011;67177;47.240;-1.546;2023-11-19T14:14:08;9.68;;;1.90;;
77984;SDS011;67177;47.240;-1.546;2023-11-19T14:16:34;13.20;;;2.17;;
77984;SDS011;67177;47.240;-1.546;2023-11-19T14:18:59;12.73;;;2.22;;
77984;SDS011;67177;47.240;-1.546;2023-11-19T14:21:25;7.37;;;1.40;;
77984;SDS011;67177;47.240;-1.546;2023-11-19T14:23:51;9.75;;;2.30;;
77984;SDS011;67177;47.240;-1.546;2023-11-19T14:26:18;13.90;;;2.00;;
77984;SDS011;67177;47.240;-1.546;2023-11-19T14:28:43;15.77;;;1.87;;
77984;SDS011;67177;47.240;-1.546;2023-11-19T14:31:09;13.73;;;2.20;;
77984;SDS011;67177;47.240;-1.546;2023-11-19T14:33:35;10.97;;;1.97;;
77984;SDS011;67177;47.240;-1.546;2023-11-19T14:36:03;15.63;;;2.33;;
77984;SDS011;67177;47.240;-1.546;2023-11-19T14:38:29;13.93;;;2.38;;
77984;SDS011;67177;47.240;-1.546;2023-11-19T14:40:55;11.37;;;2.07;;
77984;SDS011;67177;47.240;-1.546;2023-11-19T14:43:20;12.15;;;2.17;;
77984;SDS011;67177;47.240;-1.546;2023-11-19T14:45:46;9.93;;;1.90;;
77984;SDS011;67177;47.240;-1.546;2023-11-19T14:48:12;11.68;;;2.15;;
77984;SDS011;67177;47.240;-1.546;2023-11-19T14:50:37;11.33;;;1.73;;
77984;SDS011;67177;47.240;-1.546;2023-11-19T14:53:03;9.38;;;1.80;;
77984;SDS011;67177;47.240;-1.546;2023-11-19T14:55:28;9.57;;;2.00;;
77984;SDS011;67177;47.240;-1.546;2023-11-19T14:57:54;8.83;;;1.67;;
77984;SDS011;67177;47.240;-1.546;2023-11-19T15:00:21;13.27;;;1.98;;
77984;SDS011;67177;47.240;-1.546;2023-11-19T15:02:47;9.20;;;1.80;;